createdAt,value
2023-04-09T00:01:57.004Z,6.82
2023-04-09T00:07:04.053Z,6.80
2023-04-09T00:12:11.140Z,6.80
2023-04-09T00:17:18.041Z,6.79
2023-04-09T00:22:24.909Z,6.79
2023-04-09T00:27:31.789Z,6.78
2023-04-09T00:32:38.930Z,6.81
2023-04-09T00:37:46.042Z,6.83
2023-04-09T00:42:52.939Z,6.81
2023-04-09T00:48:00.031Z,6.80
2023-04-09T00:53:07.776Z,6.76
2023-04-09T00:58:15.361Z,6.72
2023-04-09T01:03:22.675Z,6.66
2023-04-09T01:08:40.505Z,6.63
2023-04-09T01:13:53.962Z,6.59
2023-04-09T01:19:10.921Z,6.54
2023-04-09T01:24:33.202Z,6.50
2023-04-09T01:29:46.576Z,6.48
2023-04-09T01:34:55.101Z,6.47
2023-04-09T01:40:02.515Z,6.47
2023-04-09T01:45:12.078Z,6.46
2023-04-09T01:50:19.526Z,6.44
2023-04-09T01:55:26.569Z,6.41
2023-04-09T02:00:41.235Z,6.36
2023-04-09T02:05:54.611Z,6.33
2023-04-09T02:11:05.685Z,6.27
2023-04-09T02:16:12.795Z,6.18
2023-04-09T02:21:19.689Z,6.10
2023-04-09T02:26:26.651Z,6.05
2023-04-09T02:31:33.653Z,6.03
2023-04-09T02:36:40.576Z,6.00
2023-04-09T02:41:47.521Z,6.00
2023-04-09T02:46:54.759Z,6.01
2023-04-09T02:52:01.527Z,6.00
2023-04-09T02:57:08.424Z,5.98
2023-04-09T03:02:15.883Z,5.98
2023-04-09T03:07:23.534Z,6.00
2023-04-09T03:12:30.898Z,6.03
2023-04-09T03:17:38.472Z,6.06
2023-04-09T03:22:45.934Z,6.06
2023-04-09T03:28:03.562Z,6.07
2023-04-09T03:33:19.820Z,6.09
2023-04-09T03:38:38.548Z,6.11
2023-04-09T03:43:50.746Z,6.13
2023-04-09T03:49:00.712Z,6.13
2023-04-09T03:54:16.175Z,6.16
2023-04-09T03:59:24.555Z,6.19
2023-04-09T04:04:32.808Z,6.20
2023-04-09T04:09:40.565Z,6.21
2023-04-09T04:14:51.741Z,6.22
2023-04-09T04:20:04.766Z,6.22
2023-04-09T04:25:16.161Z,6.22
2023-04-09T04:30:25.460Z,6.20
2023-04-09T04:35:45.601Z,6.19
2023-04-09T04:41:08.717Z,6.18
2023-04-09T04:46:20.868Z,6.18
2023-04-09T04:51:28.841Z,6.19
2023-04-09T04:56:41.745Z,6.19
2023-04-09T05:01:59.066Z,6.21
2023-04-09T05:07:07.260Z,6.24
2023-04-09T05:12:24.538Z,6.27
2023-04-09T05:17:32.940Z,6.31
2023-04-09T05:22:41.026Z,6.33
2023-04-09T05:27:48.147Z,6.37
2023-04-09T05:32:55.731Z,6.41
2023-04-09T05:38:05.521Z,6.42
2023-04-09T05:43:12.956Z,6.43
2023-04-09T05:48:22.814Z,6.43
2023-04-09T05:53:32.782Z,6.42
2023-04-09T05:58:39.938Z,6.39
2023-04-09T06:03:47.738Z,6.33
2023-04-09T06:08:54.920Z,6.22
2023-04-09T06:14:01.765Z,6.12
2023-04-09T06:19:08.586Z,6.01
2023-04-09T06:24:15.422Z,5.94
2023-04-09T06:29:24.270Z,5.95
2023-04-09T06:34:31.513Z,5.99
2023-04-09T06:39:42.482Z,6.02
2023-04-09T06:44:52.142Z,6.06
2023-04-09T06:49:58.924Z,6.07
2023-04-09T06:55:06.357Z,6.08
2023-04-09T07:00:15.115Z,6.08
2023-04-09T07:05:22.953Z,6.06
2023-04-09T07:10:29.789Z,6.07
2023-04-09T07:15:36.931Z,6.08
2023-04-09T07:20:43.847Z,6.07
2023-04-09T07:25:51.901Z,6.07
2023-04-09T07:31:03.937Z,6.08
2023-04-09T07:36:11.097Z,6.09
2023-04-09T07:41:18.063Z,6.07
2023-04-09T07:46:25.084Z,6.09
2023-04-09T07:51:32.087Z,6.13
2023-04-09T07:56:38.989Z,6.15
2023-04-09T08:01:46.519Z,6.18
2023-04-09T08:06:53.816Z,6.23
2023-04-09T08:12:01.208Z,6.22
2023-04-09T08:17:08.316Z,6.19
2023-04-09T08:22:15.700Z,6.17
2023-04-09T08:27:23.236Z,6.19
2023-04-09T08:32:30.260Z,6.21
2023-04-09T08:37:37.152Z,6.26
2023-04-09T08:42:46.613Z,6.28
2023-04-09T08:47:54.236Z,6.28
2023-04-09T08:53:03.692Z,6.31
2023-04-09T08:58:10.693Z,6.39
2023-04-09T09:03:17.742Z,6.48
2023-04-09T09:08:27.921Z,6.56
2023-04-09T09:13:34.756Z,6.65
2023-04-09T09:18:44.077Z,6.73
2023-04-09T09:23:51.815Z,6.79
2023-04-09T09:29:00.019Z,6.81
2023-04-09T09:34:11.571Z,6.80
2023-04-09T09:39:19.117Z,6.84
2023-04-09T09:44:35.020Z,6.85
2023-04-09T09:49:42.057Z,6.83
2023-04-09T09:54:53.478Z,6.72
2023-04-09T10:00:04.374Z,6.60
2023-04-09T10:05:24.989Z,6.53
2023-04-09T10:10:31.337Z,6.48
2023-04-09T10:15:38.821Z,6.44
2023-04-09T10:20:52.122Z,6.39
2023-04-09T10:25:59.169Z,6.39
2023-04-09T10:31:07.891Z,6.41
2023-04-09T10:36:22.566Z,6.43
2023-04-09T10:41:30.989Z,6.47
2023-04-09T10:46:38.907Z,6.51
2023-04-09T10:51:51.959Z,6.53
2023-04-09T10:57:16.499Z,6.59
2023-04-09T11:02:55.974Z,6.68
2023-04-09T11:08:07.509Z,6.71
2023-04-09T11:13:16.335Z,6.69
2023-04-09T11:18:28.374Z,6.74
2023-04-09T11:23:36.078Z,6.77
2023-04-09T11:28:43.808Z,6.79
2023-04-09T11:33:52.328Z,6.81
2023-04-09T11:38:59.321Z,6.87
2023-04-09T11:44:07.447Z,6.92
2023-04-09T11:49:14.608Z,6.96
2023-04-09T11:54:21.445Z,6.99
2023-04-09T11:59:29.441Z,7.03
2023-04-09T12:04:36.520Z,7.06
2023-04-09T12:09:50.917Z,7.12
2023-04-09T12:14:59.331Z,7.22
2023-04-09T12:20:08.664Z,7.30
2023-04-09T12:25:15.649Z,7.41
2023-04-09T12:30:22.704Z,7.50
2023-04-09T12:35:29.805Z,7.57
2023-04-09T12:40:38.031Z,7.62
2023-04-09T12:45:47.385Z,7.63
2023-04-09T12:50:54.383Z,7.65
2023-04-09T12:56:01.939Z,7.69
2023-04-09T13:01:09.419Z,7.75
2023-04-09T13:06:16.460Z,7.79
2023-04-09T13:11:23.465Z,7.83
2023-04-09T13:16:30.685Z,7.86
2023-04-09T13:21:37.720Z,7.90
2023-04-09T13:26:45.139Z,7.92
2023-04-09T13:31:52.029Z,7.97
2023-04-09T13:36:59.003Z,7.99
2023-04-09T13:42:13.221Z,8.00
2023-04-09T13:47:21.236Z,8.02
2023-04-09T13:52:29.721Z,8.01
2023-04-09T13:57:37.000Z,7.99
2023-04-09T14:02:44.022Z,7.99
2023-04-09T14:07:51.307Z,7.99
2023-04-09T14:12:58.258Z,7.97
2023-04-09T14:18:05.596Z,7.98
2023-04-09T14:23:12.659Z,7.97
2023-04-09T14:28:19.730Z,7.98
2023-04-09T14:33:26.578Z,7.96
2023-04-09T14:38:34.307Z,7.95
2023-04-09T14:43:41.358Z,7.96
2023-04-09T14:48:48.225Z,7.94
2023-04-09T14:53:55.392Z,7.97
2023-04-09T14:59:02.607Z,7.97
2023-04-09T15:04:09.624Z,7.97
2023-04-09T15:09:16.877Z,7.98
2023-04-09T15:14:24.406Z,7.97
2023-04-09T15:19:32.657Z,7.95
2023-04-09T15:24:39.685Z,7.90
2023-04-09T15:29:46.956Z,7.85
2023-04-09T15:34:53.991Z,7.82
2023-04-09T15:40:01.040Z,7.79
2023-04-09T15:45:09.424Z,7.79
2023-04-09T15:50:16.705Z,7.79
2023-04-09T15:55:26.437Z,7.79
2023-04-09T16:00:33.463Z,7.77
2023-04-09T16:05:40.733Z,7.77
2023-04-09T16:10:47.815Z,7.76
2023-04-09T16:15:54.766Z,7.72
2023-04-09T16:21:01.856Z,7.69
2023-04-09T16:26:09.373Z,7.63
2023-04-09T16:31:16.597Z,7.60
2023-04-09T16:36:23.741Z,7.58
2023-04-09T16:41:31.084Z,7.56
2023-04-09T16:46:38.242Z,7.55
2023-04-09T16:51:46.208Z,7.53
2023-04-09T16:56:53.180Z,7.52
2023-04-09T17:02:00.697Z,7.52
2023-04-09T17:07:07.950Z,7.52
2023-04-09T17:12:14.986Z,7.50
2023-04-09T17:17:22.138Z,7.49
2023-04-09T17:22:29.154Z,7.48
2023-04-09T17:27:36.218Z,7.47
2023-04-09T17:32:44.107Z,7.46
2023-04-09T17:37:51.173Z,7.46
2023-04-09T17:42:58.546Z,7.46
2023-04-09T17:48:05.748Z,7.47
2023-04-09T17:53:12.795Z,7.47
2023-04-09T17:58:20.111Z,7.46
2023-04-09T18:03:27.586Z,7.46
2023-04-09T18:08:36.949Z,7.46
2023-04-09T18:13:43.852Z,7.46
2023-04-09T18:18:50.913Z,7.45
2023-04-09T18:23:58.169Z,7.43
2023-04-09T18:29:05.977Z,7.41
2023-04-09T18:34:15.594Z,7.39
2023-04-09T18:39:23.842Z,7.39
2023-04-09T18:44:33.826Z,7.38
2023-04-09T18:49:40.842Z,7.38
2023-04-09T18:54:48.392Z,7.38
2023-04-09T18:59:55.487Z,7.36
2023-04-09T19:05:03.153Z,7.36
2023-04-09T19:10:11.363Z,7.36
2023-04-09T19:15:18.261Z,7.37
2023-04-09T19:20:25.432Z,7.36
2023-04-09T19:25:34.357Z,7.37
2023-04-09T19:30:41.423Z,7.35
2023-04-09T19:35:49.627Z,7.34
2023-04-09T19:40:56.569Z,7.33
2023-04-09T19:46:08.549Z,7.33
2023-04-09T19:51:20.272Z,7.32
2023-04-09T19:56:25.629Z,7.33
2023-04-09T20:01:32.762Z,7.32
2023-04-09T20:06:40.937Z,7.31
2023-04-09T20:11:48.097Z,7.31
2023-04-09T20:16:55.137Z,7.32
2023-04-09T20:22:02.048Z,7.30
2023-04-09T20:27:09.174Z,7.30
2023-04-09T20:32:16.169Z,7.28
2023-04-09T20:37:23.221Z,7.26
2023-04-09T20:42:30.216Z,7.24
2023-04-09T20:47:37.285Z,7.20
2023-04-09T20:52:44.850Z,7.15
2023-04-09T20:57:51.915Z,7.09
2023-04-09T21:02:59.066Z,7.01
2023-04-09T21:08:06.214Z,6.96
2023-04-09T21:13:13.033Z,6.94
2023-04-09T21:18:20.320Z,6.93
2023-04-09T21:23:27.298Z,6.89
2023-04-09T21:28:34.241Z,6.83
2023-04-09T21:33:41.094Z,6.80
2023-04-09T21:38:48.026Z,6.74
2023-04-09T21:43:54.869Z,6.68
2023-04-09T21:49:01.852Z,6.60
2023-04-09T21:54:10.086Z,6.58
2023-04-09T21:59:17.056Z,6.52
2023-04-09T22:04:24.022Z,6.46
2023-04-09T22:09:31.524Z,6.42
2023-04-09T22:14:40.578Z,6.40
2023-04-09T22:19:51.020Z,6.42
2023-04-09T22:24:58.031Z,6.40
2023-04-09T22:30:07.366Z,6.37
2023-04-09T22:35:18.041Z,6.35
2023-04-09T22:40:25.171Z,6.31
2023-04-09T22:45:32.437Z,6.26
2023-04-09T22:50:39.374Z,6.26
2023-04-09T22:55:47.584Z,6.23
2023-04-09T23:00:54.532Z,6.17
2023-04-09T23:06:01.364Z,6.03
2023-04-09T23:11:08.516Z,5.93
2023-04-09T23:16:16.084Z,5.78
2023-04-09T23:21:23.080Z,5.67
2023-04-09T23:26:30.104Z,5.63
2023-04-09T23:31:37.082Z,5.58
2023-04-09T23:36:44.156Z,5.54
2023-04-09T23:41:51.259Z,5.48
2023-04-09T23:46:58.605Z,5.39
2023-04-09T23:52:06.132Z,5.29
2023-04-09T23:57:13.502Z,5.24
